createdAt,value
2019-03-16T00:00:45.961Z,5.86
2019-03-16T00:03:14.670Z,5.86
2019-03-16T00:05:44.067Z,5.85
2019-03-16T00:08:12.759Z,5.83
2019-03-16T00:10:41.515Z,5.82
2019-03-16T00:13:10.272Z,5.81
2019-03-16T00:15:38.969Z,5.87
2019-03-16T00:18:07.648Z,5.84
2019-03-16T00:20:36.675Z,5.83
2019-03-16T00:23:05.655Z,5.82
2019-03-16T00:25:34.582Z,5.80
2019-03-16T00:28:03.958Z,5.79
2019-03-16T00:30:32.993Z,5.82
2019-03-16T00:33:02.137Z,5.86
2019-03-16T00:35:30.814Z,5.85
2019-03-16T00:37:59.524Z,5.87
2019-03-16T00:40:28.523Z,5.82
2019-03-16T00:42:57.919Z,5.82
2019-03-16T00:45:26.896Z,5.84
2019-03-16T00:47:55.649Z,5.87
2019-03-16T00:50:24.340Z,5.87
2019-03-16T00:52:53.097Z,5.81
2019-03-16T00:55:21.789Z,5.80
2019-03-16T00:57:50.741Z,5.79
2019-03-16T01:00:19.504Z,5.79
2019-03-16T01:02:48.488Z,5.80
2019-03-16T01:05:17.521Z,5.76
2019-03-16T01:07:46.922Z,5.78
2019-03-16T01:10:15.672Z,5.79
2019-03-16T01:12:44.641Z,5.82
2019-03-16T01:15:13.897Z,5.83
2019-03-16T01:17:42.669Z,5.78
2019-03-16T01:20:11.559Z,5.75
2019-03-16T01:22:40.312Z,5.74
2019-03-16T01:25:09.954Z,5.73
2019-03-16T01:27:38.880Z,5.72
2019-03-16T01:30:09.840Z,5.76
2019-03-16T01:32:40.796Z,5.73
2019-03-16T01:35:09.337Z,5.71
2019-03-16T01:37:38.114Z,5.67
2019-03-16T01:40:07.573Z,5.67
2019-03-16T01:42:36.319Z,5.67
2019-03-16T01:45:05.461Z,5.70
2019-03-16T01:47:34.515Z,5.67
2019-03-16T01:50:03.301Z,5.67
2019-03-16T01:52:52.756Z,5.65
2019-03-16T01:55:21.665Z,5.63
2019-03-16T01:57:50.352Z,5.62
2019-03-16T02:00:19.126Z,5.60
2019-03-16T02:02:55.216Z,5.60
2019-03-16T02:05:18.208Z,5.61
2019-03-16T02:07:47.150Z,5.61
2019-03-16T02:10:15.904Z,5.60
2019-03-16T02:12:44.599Z,5.58
2019-03-16T02:15:13.717Z,5.56
2019-03-16T02:17:42.716Z,5.57
2019-03-16T02:20:11.555Z,5.54
2019-03-16T02:22:40.340Z,5.55
2019-03-16T02:25:09.091Z,5.51
2019-03-16T02:27:38.105Z,5.54
2019-03-16T02:30:07.136Z,5.55
2019-03-16T02:32:36.062Z,5.51
2019-03-16T02:35:05.439Z,5.54
2019-03-16T02:37:34.856Z,5.52
2019-03-16T02:40:03.721Z,5.51
2019-03-16T02:42:32.408Z,5.50
2019-03-16T02:45:01.096Z,5.48
2019-03-16T02:47:29.815Z,5.50
2019-03-16T02:49:58.701Z,5.51
2019-03-16T02:52:27.659Z,5.52
2019-03-16T02:54:56.362Z,5.51
2019-03-16T02:57:25.283Z,5.49
2019-03-16T02:59:53.966Z,5.48
2019-03-16T03:02:22.919Z,5.47
2019-03-16T03:04:51.636Z,5.51
2019-03-16T03:07:20.542Z,5.48
2019-03-16T03:09:49.465Z,5.49
2019-03-16T03:12:18.142Z,5.51
2019-03-16T03:14:47.362Z,5.51
2019-03-16T03:17:16.029Z,5.51
2019-03-16T03:19:45.347Z,5.48
2019-03-16T03:22:13.975Z,5.48
2019-03-16T03:24:45.390Z,5.48
2019-03-16T03:27:14.076Z,5.48
2019-03-16T03:29:43.044Z,5.45
2019-03-16T03:32:11.731Z,5.48
2019-03-16T03:34:40.429Z,5.49
2019-03-16T03:37:09.074Z,5.46
2019-03-16T03:39:37.989Z,5.48
2019-03-16T03:42:07.040Z,5.51
2019-03-16T03:44:36.239Z,5.47
2019-03-16T03:47:05.081Z,5.43
2019-03-16T03:49:33.788Z,5.44
2019-03-16T03:52:02.666Z,5.45
2019-03-16T03:54:31.666Z,5.45
2019-03-16T03:57:00.632Z,5.41
2019-03-16T03:59:29.641Z,5.44
2019-03-16T04:01:58.768Z,5.45
2019-03-16T04:04:27.632Z,5.47
2019-03-16T04:06:56.385Z,5.42
2019-03-16T04:09:25.657Z,5.42
2019-03-16T04:11:54.566Z,5.41
2019-03-16T04:14:23.245Z,5.47
2019-03-16T04:16:51.927Z,5.46
2019-03-16T04:19:20.692Z,5.49
2019-03-16T04:21:49.834Z,5.48
2019-03-16T04:24:18.552Z,5.48
2019-03-16T04:26:47.236Z,5.45
2019-03-16T04:29:15.944Z,5.47
2019-03-16T04:31:45.257Z,5.49
2019-03-16T04:34:28.076Z,5.46
2019-03-16T04:36:44.332Z,5.46
2019-03-16T04:39:13.047Z,5.48
2019-03-16T04:41:41.994Z,5.47
2019-03-16T04:44:11.008Z,5.45
2019-03-16T04:46:40.299Z,5.48
2019-03-16T04:49:09.296Z,5.51
2019-03-16T04:51:38.233Z,5.52
2019-03-16T04:54:07.246Z,5.50
2019-03-16T04:56:36.261Z,5.53
2019-03-16T04:59:04.946Z,5.53
2019-03-16T05:01:33.635Z,5.52
2019-03-16T05:04:02.952Z,5.55
2019-03-16T05:06:31.706Z,5.54
2019-03-16T05:09:00.675Z,5.52
2019-03-16T05:11:29.350Z,5.57
2019-03-16T05:13:58.056Z,5.54
2019-03-16T05:16:27.087Z,5.52
2019-03-16T05:18:55.759Z,5.50
2019-03-16T05:21:24.539Z,5.46
2019-03-16T05:23:53.233Z,5.45
2019-03-16T05:26:21.929Z,5.42
2019-03-16T05:28:50.686Z,5.34
2019-03-16T05:31:20.636Z,5.22
2019-03-16T05:33:49.719Z,5.20
2019-03-16T05:36:18.921Z,5.13
2019-03-16T05:38:47.615Z,5.05
2019-03-16T05:41:16.609Z,4.98
2019-03-16T05:43:45.293Z,5.04
2019-03-16T05:46:13.979Z,4.90
2019-03-16T05:48:42.643Z,4.79
2019-03-16T05:51:11.573Z,4.74
2019-03-16T05:53:40.262Z,4.57
2019-03-16T05:56:10.812Z,4.44
2019-03-16T05:58:39.861Z,4.36
2019-03-16T06:01:09.170Z,4.32
2019-03-16T06:03:38.193Z,4.23
2019-03-16T06:06:06.930Z,4.13
2019-03-16T06:08:36.243Z,4.09
2019-03-16T06:11:05.233Z,4.10
2019-03-16T06:13:33.918Z,4.06
2019-03-16T06:16:02.610Z,4.06
2019-03-16T06:18:31.536Z,4.04
2019-03-16T06:21:00.204Z,4.07
2019-03-16T06:23:29.744Z,4.01
2019-03-16T06:25:58.500Z,3.98
2019-03-16T06:28:27.456Z,3.91
2019-03-16T06:30:56.561Z,3.87
2019-03-16T06:33:25.233Z,3.93
2019-03-16T06:35:54.172Z,3.93
2019-03-16T06:38:22.868Z,3.98
2019-03-16T06:40:51.541Z,3.96
2019-03-16T06:43:20.452Z,3.89
2019-03-16T06:45:49.398Z,3.93
2019-03-16T06:48:18.337Z,3.91
2019-03-16T06:50:47.532Z,3.84
2019-03-16T06:53:19.545Z,3.86
2019-03-16T06:55:46.881Z,3.85
2019-03-16T06:58:15.596Z,3.89
2019-03-16T07:00:44.542Z,3.95
2019-03-16T07:03:13.479Z,4.03
2019-03-16T07:05:42.480Z,4.09
2019-03-16T07:08:11.153Z,4.13
2019-03-16T07:10:41.850Z,4.09
2019-03-16T07:13:10.791Z,4.07
2019-03-16T07:15:39.774Z,4.15
2019-03-16T07:18:08.462Z,4.09
2019-03-16T07:20:37.140Z,3.99
2019-03-16T07:23:06.094Z,3.97
2019-03-16T07:25:34.762Z,3.95
2019-03-16T07:28:03.402Z,3.96
2019-03-16T07:30:32.160Z,4.05
2019-03-16T07:33:01.078Z,3.98
2019-03-16T07:35:29.764Z,3.99
2019-03-16T07:37:58.671Z,3.97
2019-03-16T07:40:27.596Z,4.04
2019-03-16T07:42:56.294Z,4.12
2019-03-16T07:45:25.008Z,4.13
2019-03-16T07:47:53.684Z,4.24
2019-03-16T07:50:22.370Z,4.27
2019-03-16T07:52:51.301Z,4.37
2019-03-16T07:55:19.979Z,4.30
2019-03-16T07:57:48.657Z,4.31
2019-03-16T08:00:17.422Z,4.25
2019-03-16T08:02:46.382Z,4.23
2019-03-16T08:05:19.389Z,4.31
2019-03-16T08:07:45.698Z,4.38
2019-03-16T08:10:14.515Z,4.33
2019-03-16T08:12:43.213Z,4.33
2019-03-16T08:15:12.010Z,4.29
2019-03-16T08:17:40.802Z,4.32
2019-03-16T08:20:11.280Z,4.28
2019-03-16T08:22:39.983Z,4.35
2019-03-16T08:25:08.826Z,4.36
2019-03-16T08:27:37.501Z,4.47
2019-03-16T08:30:06.399Z,4.35
2019-03-16T08:32:35.343Z,4.39
2019-03-16T08:35:04.171Z,4.39
2019-03-16T08:37:33.108Z,4.46
2019-03-16T08:40:12.805Z,4.54
2019-03-16T08:42:43.177Z,4.62
2019-03-16T08:45:12.637Z,4.64
2019-03-16T08:47:41.447Z,4.55
2019-03-16T08:50:10.684Z,4.61
2019-03-16T08:52:39.697Z,4.63
2019-03-16T08:55:08.754Z,4.64
2019-03-16T08:57:37.521Z,4.65
2019-03-16T09:00:06.909Z,4.75
2019-03-16T09:02:35.649Z,4.74
2019-03-16T09:05:04.615Z,4.80
2019-03-16T09:07:33.333Z,4.65
2019-03-16T09:10:02.260Z,4.62
2019-03-16T09:12:31.209Z,4.63
2019-03-16T09:14:59.905Z,4.61
2019-03-16T09:17:28.913Z,4.72
2019-03-16T09:19:57.859Z,4.74
2019-03-16T09:22:29.508Z,4.83
2019-03-16T09:24:57.118Z,4.86
2019-03-16T09:27:31.171Z,4.93
2019-03-16T09:29:56.256Z,4.95
2019-03-16T09:32:25.201Z,4.98
2019-03-16T09:34:53.898Z,5.08
2019-03-16T09:37:22.625Z,5.10
2019-03-16T09:39:51.571Z,5.10
2019-03-16T09:42:20.278Z,5.09
2019-03-16T09:44:48.981Z,5.15
2019-03-16T09:47:18.029Z,5.14
2019-03-16T09:49:47.263Z,5.16
2019-03-16T09:52:16.284Z,5.12
2019-03-16T09:54:45.009Z,5.13
2019-03-16T09:57:13.758Z,5.09
2019-03-16T09:59:43.036Z,5.08
2019-03-16T10:02:12.053Z,5.10
2019-03-16T10:04:40.799Z,5.13
2019-03-16T10:07:09.505Z,5.18
2019-03-16T10:09:38.463Z,5.25
2019-03-16T10:12:07.166Z,5.34
2019-03-16T10:14:37.264Z,5.39
2019-03-16T10:17:06.401Z,5.45
2019-03-16T10:19:35.209Z,5.62
2019-03-16T10:22:03.980Z,5.69
2019-03-16T10:24:32.926Z,5.83
2019-03-16T10:27:04.379Z,5.89
2019-03-16T10:29:33.119Z,6.08
2019-03-16T10:32:02.125Z,6.11
2019-03-16T10:34:30.907Z,6.28
2019-03-16T10:37:00.737Z,6.42
2019-03-16T10:39:29.442Z,6.41
2019-03-16T10:41:58.650Z,6.46
2019-03-16T10:44:27.650Z,6.63
2019-03-16T10:46:56.641Z,6.76
2019-03-16T10:49:25.353Z,6.91
2019-03-16T10:51:54.069Z,7.01
2019-03-16T10:54:22.777Z,7.12
2019-03-16T10:56:51.490Z,7.29
2019-03-16T10:59:20.434Z,7.42
2019-03-16T11:01:49.531Z,7.58
2019-03-16T11:04:18.517Z,7.68
2019-03-16T11:06:47.243Z,7.77
2019-03-16T11:09:16.167Z,7.87
2019-03-16T11:11:44.861Z,7.91
2019-03-16T11:14:13.633Z,8.03
2019-03-16T11:16:42.550Z,8.06
2019-03-16T11:19:11.511Z,8.11
2019-03-16T11:21:41.990Z,8.13
2019-03-16T11:24:10.736Z,8.18
2019-03-16T11:26:39.429Z,8.17
2019-03-16T11:29:09.519Z,8.24
2019-03-16T11:31:38.546Z,8.30
2019-03-16T11:34:07.403Z,8.29
2019-03-16T11:36:36.389Z,8.28
2019-03-16T11:39:07.546Z,8.36
2019-03-16T11:41:36.458Z,8.37
2019-03-16T11:44:05.242Z,8.39
2019-03-16T11:46:34.216Z,8.35
2019-03-16T11:49:03.478Z,8.34
2019-03-16T11:51:32.179Z,8.35
2019-03-16T11:54:01.131Z,8.37
2019-03-16T11:56:29.869Z,8.36
2019-03-16T11:58:58.557Z,8.39
2019-03-16T12:01:27.277Z,8.34
2019-03-16T12:03:56.220Z,8.31
2019-03-16T12:06:25.399Z,8.30
2019-03-16T12:08:54.360Z,8.32
2019-03-16T12:11:23.140Z,8.32
2019-03-16T12:13:51.798Z,8.30
2019-03-16T12:16:20.733Z,8.29
2019-03-16T12:18:49.791Z,8.32
2019-03-16T12:21:18.513Z,8.29
2019-03-16T12:23:47.249Z,8.28
2019-03-16T12:26:15.978Z,8.37
2019-03-16T12:28:44.705Z,8.35
2019-03-16T12:31:13.492Z,8.34
2019-03-16T12:33:42.210Z,8.35
2019-03-16T12:36:11.165Z,8.40
2019-03-16T12:38:43.080Z,8.31
2019-03-16T12:41:11.798Z,8.37
2019-03-16T12:43:40.573Z,8.38
2019-03-16T12:46:09.257Z,8.38
2019-03-16T12:48:38.005Z,8.35
2019-03-16T12:51:07.012Z,8.42
2019-03-16T12:53:35.735Z,8.43
2019-03-16T12:56:04.458Z,8.52
2019-03-16T12:58:33.508Z,8.50
2019-03-16T13:01:02.476Z,8.55
2019-03-16T13:03:31.453Z,8.60
2019-03-16T13:06:00.156Z,8.59
2019-03-16T13:08:29.115Z,8.62
2019-03-16T13:10:57.866Z,8.66
2019-03-16T13:13:26.842Z,8.69
2019-03-16T13:15:55.526Z,8.73
2019-03-16T13:18:24.496Z,8.72
2019-03-16T13:20:53.231Z,8.70
2019-03-16T13:23:22.284Z,8.72
2019-03-16T13:25:50.987Z,8.70
2019-03-16T13:28:19.789Z,8.76
2019-03-16T13:30:49.074Z,8.77
2019-03-16T13:33:18.025Z,8.79
2019-03-16T13:35:46.769Z,8.86
2019-03-16T13:38:15.731Z,8.80
2019-03-16T13:40:47.080Z,8.78
2019-03-16T13:43:15.784Z,8.78
2019-03-16T13:45:45.017Z,8.82
2019-03-16T13:48:18.978Z,8.86
2019-03-16T13:50:47.674Z,8.88
2019-03-16T13:53:16.382Z,8.90
2019-03-16T13:55:45.167Z,8.89
2019-03-16T13:58:14.365Z,8.88
2019-03-16T14:00:43.099Z,8.89
2019-03-16T14:03:12.792Z,8.89
2019-03-16T14:05:41.825Z,8.83
2019-03-16T14:08:10.596Z,8.32
2019-03-16T14:10:39.883Z,8.78
2019-03-16T14:13:11.264Z,8.78
2019-03-16T14:15:39.983Z,8.83
2019-03-16T14:18:08.678Z,8.80
2019-03-16T14:20:37.375Z,8.77
2019-03-16T14:23:06.078Z,8.78
2019-03-16T14:25:34.972Z,8.78
2019-03-16T14:28:03.733Z,8.78
2019-03-16T14:30:40.880Z,8.80
2019-03-16T14:33:02.864Z,8.88
2019-03-16T14:35:31.813Z,8.89
2019-03-16T14:38:00.534Z,8.96
2019-03-16T14:40:29.293Z,8.93
2019-03-16T14:42:58.060Z,8.93
2019-03-16T14:45:27.052Z,8.87
2019-03-16T14:47:55.991Z,8.87
2019-03-16T14:50:24.691Z,8.91
2019-03-16T14:52:53.439Z,8.90
2019-03-16T14:55:22.143Z,8.88
2019-03-16T14:57:50.896Z,8.84
2019-03-16T15:00:19.566Z,8.84
2019-03-16T15:02:48.246Z,8.80
2019-03-16T15:05:16.964Z,8.79
2019-03-16T15:07:45.623Z,8.79
2019-03-16T15:10:14.410Z,8.76
2019-03-16T15:12:43.107Z,8.77
2019-03-16T15:15:12.367Z,8.76
2019-03-16T15:17:41.063Z,8.72
2019-03-16T15:20:14.658Z,8.73
2019-03-16T15:22:43.900Z,8.70
2019-03-16T15:25:12.596Z,8.68
2019-03-16T15:27:41.430Z,8.64
2019-03-16T15:30:12.490Z,8.63
2019-03-16T15:32:41.334Z,8.67
2019-03-16T15:35:10.929Z,8.72
2019-03-16T15:37:39.899Z,8.71
2019-03-16T15:40:09.623Z,8.82
2019-03-16T15:42:38.333Z,8.81
2019-03-16T15:45:09.650Z,8.87
2019-03-16T15:47:38.365Z,8.85
2019-03-16T15:50:07.809Z,8.84
2019-03-16T15:52:37.678Z,8.86
2019-03-16T15:55:06.896Z,8.85
2019-03-16T15:57:35.648Z,8.85
2019-03-16T16:00:05.326Z,8.86
2019-03-16T16:02:34.721Z,8.88
2019-03-16T16:05:03.436Z,8.93
2019-03-16T16:07:35.121Z,8.91
2019-03-16T16:10:02.792Z,8.89
2019-03-16T16:12:31.486Z,8.93
2019-03-16T16:15:00.381Z,8.92
2019-03-16T16:17:29.334Z,8.96
2019-03-16T16:19:58.311Z,8.89
2019-03-16T16:22:26.999Z,8.85
2019-03-16T16:24:55.699Z,8.90
2019-03-16T16:27:24.408Z,8.85
2019-03-16T16:29:53.352Z,8.83
2019-03-16T16:32:22.274Z,8.90
2019-03-16T16:34:50.952Z,8.86
2019-03-16T16:37:19.648Z,8.93
2019-03-16T16:39:48.592Z,8.92
2019-03-16T16:42:17.278Z,8.90
2019-03-16T16:44:46.236Z,8.92
2019-03-16T16:47:14.978Z,8.91
2019-03-16T16:49:43.871Z,8.91
2019-03-16T16:52:12.563Z,8.88
2019-03-16T16:54:41.554Z,8.90
2019-03-16T16:57:10.242Z,8.88
2019-03-16T16:59:38.921Z,8.93
2019-03-16T17:02:07.994Z,8.92
2019-03-16T17:04:36.915Z,8.92
2019-03-16T17:07:05.875Z,8.90
2019-03-16T17:09:34.844Z,8.86
2019-03-16T17:12:03.655Z,8.89
2019-03-16T17:14:32.349Z,8.88
2019-03-16T17:17:01.287Z,8.94
2019-03-16T17:19:29.939Z,8.92
2019-03-16T17:21:58.916Z,8.88
2019-03-16T17:24:27.691Z,8.87
2019-03-16T17:26:56.382Z,8.92
2019-03-16T17:29:25.385Z,8.88
2019-03-16T17:31:54.401Z,8.89
2019-03-16T17:34:23.047Z,8.85
2019-03-16T17:36:52.001Z,8.87
2019-03-16T17:39:20.689Z,8.85
2019-03-16T17:41:49.494Z,8.87
2019-03-16T17:44:18.427Z,8.94
2019-03-16T17:46:47.118Z,8.94
2019-03-16T17:49:15.807Z,8.94
2019-03-16T17:51:44.491Z,8.93
2019-03-16T17:54:13.450Z,8.96
2019-03-16T17:56:42.192Z,8.94
2019-03-16T17:59:10.872Z,8.90
2019-03-16T18:01:39.590Z,8.94
2019-03-16T18:04:12.571Z,8.84
2019-03-16T18:06:46.915Z,8.90
2019-03-16T18:09:17.222Z,8.88
2019-03-16T18:11:46.733Z,8.85
2019-03-16T18:14:17.896Z,8.88
2019-03-16T18:16:47.516Z,8.90
2019-03-16T18:19:16.537Z,8.88
2019-03-16T18:21:45.361Z,8.90
2019-03-16T18:24:14.189Z,8.94
2019-03-16T18:26:43.026Z,8.90
2019-03-16T18:29:12.438Z,8.82
2019-03-16T18:31:41.552Z,8.95
2019-03-16T18:34:11.069Z,8.83
2019-03-16T18:36:40.835Z,8.83
2019-03-16T18:39:09.811Z,8.88
2019-03-16T18:41:39.041Z,8.92
2019-03-16T18:44:07.849Z,8.98
2019-03-16T18:46:37.315Z,8.91
2019-03-16T18:49:07.625Z,8.86
2019-03-16T18:51:44.080Z,8.84
2019-03-16T18:54:13.132Z,8.85
2019-03-16T18:56:42.147Z,8.94
2019-03-16T18:59:11.232Z,8.90
2019-03-16T19:01:39.913Z,8.86
2019-03-16T19:04:08.855Z,8.95
2019-03-16T19:06:37.790Z,8.89
2019-03-16T19:09:08.435Z,8.87
2019-03-16T19:11:37.169Z,8.85
2019-03-16T19:14:05.913Z,8.86
2019-03-16T19:16:34.855Z,8.89
2019-03-16T19:19:03.768Z,8.91
2019-03-16T19:21:34.825Z,8.89
2019-03-16T19:24:03.541Z,8.92
2019-03-16T19:26:32.175Z,8.89
2019-03-16T19:29:00.855Z,8.89
2019-03-16T19:31:29.833Z,8.90
2019-03-16T19:33:58.621Z,8.87
2019-03-16T19:36:27.324Z,8.86
2019-03-16T19:38:56.255Z,8.89
2019-03-16T19:41:25.240Z,8.87
2019-03-16T19:43:53.964Z,8.85
2019-03-16T19:46:22.643Z,8.82
2019-03-16T19:48:51.327Z,8.80
2019-03-16T19:51:20.023Z,8.85
2019-03-16T19:53:49.213Z,8.89
2019-03-16T19:56:18.141Z,8.90
2019-03-16T19:58:59.721Z,8.90
2019-03-16T20:01:17.758Z,8.88
2019-03-16T20:03:46.696Z,8.92
2019-03-16T20:06:25.590Z,8.88
2019-03-16T20:08:48.265Z,8.75
2019-03-16T20:11:16.972Z,8.74
2019-03-16T20:13:45.699Z,8.88
2019-03-16T20:16:14.649Z,8.79
2019-03-16T20:18:43.319Z,8.73
2019-03-16T20:21:12.544Z,8.66
2019-03-16T20:23:41.267Z,8.67
2019-03-16T20:26:09.951Z,8.67
2019-03-16T20:28:40.891Z,8.77
2019-03-16T20:31:09.588Z,8.69
2019-03-16T20:33:38.291Z,8.70
2019-03-16T20:36:07.467Z,8.67
2019-03-16T20:38:36.412Z,8.70
2019-03-16T20:41:05.239Z,8.71
2019-03-16T20:43:33.968Z,8.69
2019-03-16T20:46:02.973Z,8.72
2019-03-16T20:48:31.912Z,8.72
2019-03-16T20:51:00.876Z,8.75
2019-03-16T20:53:29.568Z,8.80
2019-03-16T20:55:58.293Z,8.75
2019-03-16T20:58:26.959Z,8.70
2019-03-16T21:00:58.070Z,8.70
2019-03-16T21:03:26.097Z,8.76
2019-03-16T21:05:55.040Z,8.76
2019-03-16T21:08:23.714Z,8.77
2019-03-16T21:10:52.413Z,8.73
2019-03-16T21:13:21.105Z,8.77
2019-03-16T21:15:49.789Z,8.77
2019-03-16T21:18:18.793Z,8.75
2019-03-16T21:20:47.489Z,8.74
2019-03-16T21:23:16.207Z,8.73
2019-03-16T21:25:45.112Z,8.72
2019-03-16T21:28:15.848Z,8.71
2019-03-16T21:30:44.472Z,8.73
2019-03-16T21:33:13.213Z,8.77
2019-03-16T21:35:42.135Z,8.77
2019-03-16T21:38:11.075Z,8.74
2019-03-16T21:40:40.020Z,8.75
2019-03-16T21:43:08.942Z,8.72
2019-03-16T21:45:37.611Z,8.78
2019-03-16T21:48:06.617Z,8.76
2019-03-16T21:50:35.703Z,8.74
2019-03-16T21:53:04.741Z,8.71
2019-03-16T21:55:33.500Z,8.79
2019-03-16T21:58:03.901Z,8.76
2019-03-16T22:00:32.579Z,8.73
2019-03-16T22:03:01.479Z,8.67
2019-03-16T22:05:30.157Z,8.68
2019-03-16T22:07:59.605Z,8.73
2019-03-16T22:10:28.567Z,8.74
2019-03-16T22:12:57.240Z,8.75
2019-03-16T22:15:25.918Z,8.79
2019-03-16T22:17:54.581Z,8.89
2019-03-16T22:20:23.268Z,8.82
2019-03-16T22:22:52.446Z,8.78
2019-03-16T22:25:21.470Z,8.76
2019-03-16T22:27:51.809Z,8.79
2019-03-16T22:30:20.730Z,8.80
2019-03-16T22:32:52.452Z,8.82
2019-03-16T22:35:24.148Z,8.83
2019-03-16T22:37:53.209Z,8.78
2019-03-16T22:40:22.213Z,8.78
2019-03-16T22:42:51.167Z,8.79
2019-03-16T22:45:19.923Z,8.82
2019-03-16T22:47:48.589Z,8.76
2019-03-16T22:50:17.383Z,8.81
2019-03-16T22:52:46.038Z,8.84
2019-03-16T22:55:16.147Z,8.81
2019-03-16T22:57:45.676Z,8.82
2019-03-16T23:00:14.833Z,8.87
2019-03-16T23:02:43.630Z,8.89
2019-03-16T23:05:12.778Z,8.88
2019-03-16T23:07:41.447Z,8.91
2019-03-16T23:10:10.746Z,8.93
2019-03-16T23:12:39.437Z,8.91
2019-03-16T23:15:08.244Z,8.91
2019-03-16T23:17:37.219Z,8.90
2019-03-16T23:20:06.039Z,8.88
2019-03-16T23:22:35.025Z,8.93
2019-03-16T23:25:03.863Z,8.94
2019-03-16T23:27:32.573Z,8.90
2019-03-16T23:30:01.934Z,8.85
2019-03-16T23:32:30.966Z,8.88
2019-03-16T23:34:59.950Z,8.87
2019-03-16T23:37:28.636Z,8.88
2019-03-16T23:39:57.613Z,8.94
2019-03-16T23:42:26.315Z,8.98
2019-03-16T23:44:55.018Z,8.90
2019-03-16T23:47:23.995Z,8.83
2019-03-16T23:49:52.707Z,8.88
2019-03-16T23:52:21.675Z,8.88
2019-03-16T23:54:50.664Z,8.92
2019-03-16T23:57:19.397Z,8.87
2019-03-16T23:59:48.896Z,8.91
